< < Back
Terminal Aerodrome Forecast


Current Version              Previous Versions:   1  2  3  4  5  6  7  8  9  

Terminal Aerodrome Forecast

082
FTUS42 KCAE 031136
TAFAGS
TAF
KAGS 031136Z 0312/0412 00000KT P6SM BKN250
      TEMPO 0312/0313 4SM BR
     FM031500 VRB05KT P6SM SCT050 BKN250
     FM040100 00000KT P6SM SCT250=



Latest METAR

993
SAUS70 KWBC 040000 RRA
MTRAGS
METAR KAGS 032353Z 00000KT 10SM CLR 27/24 A2988 RMK AO2 SLP116 T02720244
10328 20272 56005


USA.gov is the U.S. government's official web portal to all federal, state and local government web resources and services.